Time;durP1;ratioP1;P1;durP2;ratioP2;P2;SDS_P1;SDS_P2;PMS_P1;PMS_P2;Temp;Humidity;BMP_temperature;BMP_pressure;BME280_temperature;BME280_humidity;BME280_pressure;Samples;Min_cycle;Max_cycle;Signal;HPM_P1;HPM_P2
2023/02/07 00:00:07;;;;;;;35.20;9.63;;;5.00;99.90;;;;;;5073459;28;20531;-83
2023/02/07 00:02:33;;;;;;;25.13;9.35;;;5.10;99.90;;;;;;5071920;28;20251;-82
2023/02/07 00:04:58;;;;;;;26.52;8.82;;;5.20;99.90;;;;;;5073415;28;20249;-81
2023/02/07 00:07:24;;;;;;;26.20;9.18;;;5.20;99.90;;;;;;5073158;28;20178;-84
2023/02/07 00:09:49;;;;;;;23.73;8.35;;;4.90;99.90;;;;;;5073384;28;20167;-86
2023/02/07 00:12:16;;;;;;;46.65;11.57;;;4.90;99.90;;;;;;5072797;28;20724;-83
2023/02/07 00:14:41;;;;;;;35.20;10.57;;;4.90;99.90;;;;;;5073208;28;20166;-85
2023/02/07 00:17:07;;;;;;;42.78;9.93;;;5.00;99.90;;;;;;5072186;28;20171;-82
2023/02/07 00:19:33;;;;;;;27.13;9.43;;;4.80;99.90;;;;;;5072384;28;20175;-85
2023/02/07 00:21:59;;;;;;;27.00;10.75;;;4.90;99.90;;;;;;5072917;28;20186;-84
2023/02/07 00:24:24;;;;;;;35.15;10.90;;;4.70;99.90;;;;;;5071869;28;20240;-84
2023/02/07 00:26:51;;;;;;;36.90;10.65;;;4.60;99.90;;;;;;5073179;28;20506;-83
2023/02/07 00:29:20;;;;;;;33.80;12.02;;;4.40;99.90;;;;;;5073100;28;20198;-85
2023/02/07 00:31:45;;;;;;;43.38;12.98;;;4.30;99.90;;;;;;5072996;28;20186;-81
2023/02/07 00:34:11;;;;;;;22.42;11.13;;;4.30;99.90;;;;;;5071927;28;20213;-86
2023/02/07 00:36:38;;;;;;;25.25;10.93;;;4.40;99.90;;;;;;5071990;28;20208;-84
2023/02/07 00:39:11;;;;;;;44.30;12.15;;;4.40;99.90;;;;;;5072954;28;20206;-83
2023/02/07 00:41:37;;;;;;;26.38;11.38;;;4.30;99.90;;;;;;5071690;28;20543;-86
2023/02/07 00:44:03;;;;;;;38.70;12.65;;;4.30;99.90;;;;;;5071994;28;20618;-86
2023/02/07 00:46:29;;;;;;;40.30;12.77;;;4.20;99.90;;;;;;5071854;28;20166;-83
2023/02/07 00:48:55;;;;;;;25.25;12.45;;;4.40;99.90;;;;;;5071747;28;20311;-83
2023/02/07 00:51:23;;;;;;;32.97;11.45;;;4.40;99.90;;;;;;5072674;28;20539;-81
2023/02/07 00:53:48;;;;;;;29.38;12.25;;;4.50;99.90;;;;;;5071561;28;20241;-82
2023/02/07 00:56:14;;;;;;;48.38;13.35;;;4.40;99.90;;;;;;5071723;28;20240;-84
2023/02/07 00:58:40;;;;;;;37.55;14.10;;;4.50;99.90;;;;;;5071232;28;20543;-82
2023/02/07 01:01:06;;;;;;;33.67;11.57;;;4.50;99.90;;;;;;5071314;28;20197;-83
2023/02/07 01:03:32;;;;;;;32.40;13.35;;;4.30;99.90;;;;;;5072481;28;20163;-80
2023/02/07 01:05:59;;;;;;;40.63;12.27;;;4.20;99.90;;;;;;5071316;28;20253;-81
2023/02/07 01:08:24;;;;;;;33.28;12.48;;;4.10;99.90;;;;;;5072589;28;20171;-82
2023/02/07 01:10:50;;;;;;;37.22;14.00;;;4.00;99.90;;;;;;5070940;28;20185;-83
2023/02/07 01:13:16;;;;;;;31.60;12.95;;;4.00;99.90;;;;;;5070750;28;20207;-83
2023/02/07 01:15:44;;;;;;;36.17;14.95;;;4.10;99.90;;;;;;5072361;28;20646;-81
2023/02/07 01:18:10;;;;;;;40.17;14.20;;;4.10;99.90;;;;;;5071192;28;20574;-82
2023/02/07 01:20:36;;;;;;;37.47;13.30;;;4.10;99.90;;;;;;5073689;28;20163;-81
2023/02/07 01:23:03;;;;;;;31.33;13.95;;;4.10;99.90;;;;;;5076029;28;20184;-82
2023/02/07 01:25:28;;;;;;;45.88;15.90;;;4.00;99.90;;;;;;5074624;28;20639;-82
2023/02/07 01:27:54;;;;;;;55.15;17.52;;;4.00;99.90;;;;;;5076305;28;20253;-82
2023/02/07 01:30:20;;;;;;;41.25;15.27;;;4.00;99.90;;;;;;5076182;28;20180;-84
2023/02/07 01:32:45;;;;;;;30.67;15.10;;;4.00;99.90;;;;;;5075703;28;20206;-83
2023/02/07 01:35:11;;;;;;;45.15;14.02;;;4.00;99.90;;;;;;5075952;28;20159;-84
2023/02/07 01:37:37;;;;;;;41.92;16.15;;;4.00;99.90;;;;;;5074735;28;20170;-86
2023/02/07 01:40:03;;;;;;;36.92;15.02;;;3.90;99.90;;;;;;5074594;28;20550;-85
2023/02/07 01:42:29;;;;;;;42.05;16.13;;;4.00;99.90;;;;;;5074541;28;20540;-83
2023/02/07 01:45:28;;;;;;;38.13;14.05;;;3.90;99.90;;;;;;5075912;28;20261;-82
2023/02/07 01:47:58;;;;;;;36.90;13.98;;;4.00;99.90;;;;;;5075681;28;20627;-85
2023/02/07 01:50:24;;;;;;;55.65;15.43;;;3.80;99.90;;;;;;5075739;28;20190;-84
2023/02/07 01:52:50;;;;;;;47.30;15.90;;;3.90;99.90;;;;;;5075413;28;20662;-82
2023/02/07 01:55:23;;;;;;;39.58;16.70;;;3.90;99.90;;;;;;5074707;28;20239;-80
2023/02/07 01:57:49;;;;;;;43.95;15.10;;;3.90;99.90;;;;;;5075285;28;20227;-83
2023/02/07 02:00:16;;;;;;;47.97;16.17;;;3.90;99.90;;;;;;5074234;28;20630;-82
2023/02/07 02:02:42;;;;;;;51.47;15.75;;;3.80;99.90;;;;;;5074174;28;20194;-84
2023/02/07 02:05:10;;;;;;;57.38;16.98;;;3.90;99.90;;;;;;5075467;28;20161;-82
2023/02/07 02:07:37;;;;;;;63.53;19.73;;;4.00;99.90;;;;;;5074166;28;20175;-86
2023/02/07 02:10:13;;;;;;;35.65;16.45;;;4.10;99.90;;;;;;5075278;28;20169;-83
2023/02/07 02:12:47;;;;;;;43.50;15.48;;;4.20;99.90;;;;;;5074091;28;20205;-82
2023/02/07 02:15:29;;;;;;;45.38;16.00;;;4.00;99.90;;;;;;5075427;28;20166;-83
2023/02/07 02:18:12;;;;;;;38.72;16.83;;;4.00;99.90;;;;;;5075244;28;20178;-82
2023/02/07 02:21:15;;;;;;;39.13;16.95;;;3.90;99.90;;;;;;5075038;28;20174;-84
2023/02/07 02:24:19;;;;;;;38.85;16.17;;;3.80;99.90;;;;;;5075275;28;20251;-84
2023/02/07 02:27:00;;;;;;;34.17;15.77;;;3.70;99.90;;;;;;5073917;28;20219;-86
2023/02/07 02:29:42;;;;;;;48.67;16.48;;;3.80;99.90;;;;;;5073650;28;20163;-84
2023/02/07 02:32:45;;;;;;;44.97;16.65;;;3.90;99.90;;;;;;5073527;28;20550;-83
2023/02/07 02:35:33;;;;;;;47.25;15.63;;;3.90;99.90;;;;;;5073578;28;20174;-83
2023/02/07 02:38:05;;;;;;;31.83;15.23;;;3.90;99.90;;;;;;5073698;28;20257;-84
2023/02/07 02:41:08;;;;;;;49.60;17.45;;;4.00;99.90;;;;;;5073130;28;20166;-82
2023/02/07 02:43:43;;;;;;;35.17;17.67;;;3.70;99.90;;;;;;5051380;28;20178;-84
2023/02/07 02:46:22;;;;;;;45.58;17.63;;;3.80;99.90;;;;;;5074602;28;20245;-82
2023/02/07 02:48:50;;;;;;;32.42;15.80;;;3.90;99.90;;;;;;5074620;28;20167;-83
2023/02/07 02:51:15;;;;;;;40.90;17.17;;;3.90;99.90;;;;;;5073157;28;20244;-85
2023/02/07 02:53:51;;;;;;;36.60;16.80;;;3.80;99.90;;;;;;5073170;28;20234;-82
2023/02/07 02:56:25;;;;;;;46.92;17.60;;;3.70;99.90;;;;;;5074430;28;20158;-84
2023/02/07 02:59:28;;;;;;;39.38;17.90;;;3.80;99.90;;;;;;5072949;28;20531;-82
2023/02/07 03:02:16;;;;;;;41.50;16.98;;;3.60;99.90;;;;;;5074292;28;20238;-82
2023/02/07 03:05:00;;;;;;;37.70;16.02;;;3.60;99.90;;;;;;5074484;28;20177;-84
2023/02/07 03:07:40;;;;;;;48.63;17.00;;;3.60;99.90;;;;;;5073257;28;20177;-83
2023/02/07 03:10:48;;;;;;;50.10;18.10;;;3.70;99.90;;;;;;5072912;28;20197;-83
2023/02/07 03:13:32;;;;;;;34.50;16.63;;;3.80;99.90;;;;;;5073666;28;20220;-84
2023/02/07 03:16:22;;;;;;;39.55;17.27;;;3.90;99.90;;;;;;5074154;28;20174;-83
2023/02/07 03:19:03;;;;;;;45.42;18.75;;;3.90;99.90;;;;;;5065268;28;20240;-85
2023/02/07 03:21:43;;;;;;;49.92;17.85;;;3.60;99.90;;;;;;5072465;28;20218;-82
2023/02/07 03:24:30;;;;;;;44.75;19.38;;;3.80;99.90;;;;;;5073822;28;20576;-84
2023/02/07 03:27:00;;;;;;;49.38;20.25;;;3.60;99.90;;;;;;5072705;28;20175;-85
2023/02/07 03:29:29;;;;;;;53.10;19.95;;;3.50;99.90;;;;;;5072732;28;20744;-82
2023/02/07 03:31:57;;;;;;;36.97;18.08;;;3.60;99.90;;;;;;5072558;28;20206;-84
2023/02/07 03:34:56;;;;;;;46.70;18.35;;;3.70;99.90;;;;;;5073634;28;20210;-84
2023/02/07 03:37:34;;;;;;;42.25;18.77;;;3.70;99.90;;;;;;5073286;28;20178;-83
2023/02/07 03:40:01;;;;;;;46.63;19.83;;;3.50;99.90;;;;;;5072349;28;20211;-85
2023/02/07 03:42:34;;;;;;;41.72;18.15;;;3.30;99.90;;;;;;5073602;28;20222;-85
2023/02/07 03:45:02;;;;;;;52.45;19.20;;;3.40;99.90;;;;;;5073611;28;20171;-82
2023/02/07 03:47:28;;;;;;;52.28;19.90;;;3.50;99.90;;;;;;5072365;28;20182;-82
2023/02/07 03:49:54;;;;;;;50.55;20.35;;;3.40;99.90;;;;;;5072526;28;20158;-86
2023/02/07 03:52:20;;;;;;;41.60;18.30;;;3.50;99.90;;;;;;5073286;28;20658;-84
2023/02/07 03:54:46;;;;;;;47.63;18.48;;;3.40;99.90;;;;;;5073559;28;20214;-85
2023/02/07 03:57:12;;;;;;;49.75;18.05;;;3.60;99.90;;;;;;5071876;28;20166;-84
2023/02/07 03:59:37;;;;;;;41.38;18.55;;;4.00;99.90;;;;;;5072057;28;20653;-82
2023/02/07 04:02:03;;;;;;;42.10;19.23;;;4.20;99.90;;;;;;5073093;28;20218;-83
2023/02/07 04:04:29;;;;;;;52.88;19.95;;;3.90;99.90;;;;;;5073046;28;20167;-82
2023/02/07 04:06:55;;;;;;;52.38;19.85;;;3.80;99.90;;;;;;5071677;28;20177;-83
2023/02/07 04:09:21;;;;;;;45.17;19.42;;;3.70;99.90;;;;;;5073461;28;20167;-84
2023/02/07 04:11:52;;;;;;;40.13;18.73;;;3.80;99.90;;;;;;5072227;28;20190;-85
2023/02/07 04:14:20;;;;;;;51.88;20.98;;;3.80;99.90;;;;;;5073236;28;20738;-84
2023/02/07 04:16:46;;;;;;;57.33;20.50;;;3.90;99.90;;;;;;5071952;28;20248;-84
2023/02/07 04:19:12;;;;;;;45.78;18.52;;;3.80;99.90;;;;;;5072089;28;20170;-85
2023/02/07 04:21:37;;;;;;;70.63;19.42;;;3.60;99.90;;;;;;5072875;28;20190;-83
2023/02/07 04:24:03;;;;;;;50.63;19.40;;;3.40;99.90;;;;;;5071820;28;20166;-81
2023/02/07 04:26:29;;;;;;;52.22;18.27;;;3.30;99.90;;;;;;5073226;28;20244;-85
2023/02/07 04:28:54;;;;;;;49.72;17.05;;;3.10;99.90;;;;;;5073031;28;20201;-83
2023/02/07 04:31:20;;;;;;;41.00;17.48;;;2.90;99.90;;;;;;5071783;28;20551;-85
2023/02/07 04:33:47;;;;;;;32.45;15.45;;;2.90;99.90;;;;;;5071893;28;20230;-82
2023/02/07 04:36:13;;;;;;;52.42;19.80;;;2.70;99.90;;;;;;5073224;28;20163;-86
2023/02/07 04:38:39;;;;;;;74.93;18.67;;;2.80;99.90;;;;;;5073717;28;20178;-83
2023/02/07 04:41:05;;;;;;;54.05;18.15;;;2.80;99.90;;;;;;5072876;28;20206;-85
2023/02/07 04:43:33;;;;;;;28.42;16.48;;;2.70;99.90;;;;;;5071783;28;20174;-85
2023/02/07 04:45:59;;;;;;;50.95;16.45;;;2.70;99.90;;;;;;5071431;28;20190;-85
2023/02/07 04:48:25;;;;;;;44.47;17.00;;;3.00;99.90;;;;;;5071403;28;20184;-84
2023/02/07 04:50:50;;;;;;;51.08;16.40;;;3.00;99.90;;;;;;5072721;28;20187;-83
2023/02/07 04:53:16;;;;;;;33.38;16.73;;;3.10;99.90;;;;;;5071593;28;20202;-82
2023/02/07 04:55:42;;;;;;;33.58;15.45;;;2.90;99.90;;;;;;5073430;28;20163;-84
2023/02/07 04:58:07;;;;;;;31.52;15.82;;;2.70;99.90;;;;;;5076639;28;20171;-86
2023/02/07 05:00:33;;;;;;;42.40;16.55;;;2.70;99.90;;;;;;5076587;28;20159;-83
2023/02/07 05:02:59;;;;;;;26.98;16.20;;;2.70;99.90;;;;;;5075356;28;20175;-82
2023/02/07 05:05:25;;;;;;;37.78;16.55;;;2.70;99.90;;;;;;5076679;28;20162;-82
2023/02/07 05:07:50;;;;;;;38.00;16.00;;;2.80;99.90;;;;;;5075254;28;20600;-81
2023/02/07 05:10:16;;;;;;;37.42;16.80;;;2.70;99.90;;;;;;5076473;28;20235;-82
2023/02/07 05:12:42;;;;;;;34.92;17.30;;;2.60;99.90;;;;;;5074848;28;20216;-83
2023/02/07 05:15:08;;;;;;;27.85;15.68;;;2.40;99.90;;;;;;5076456;28;20624;-83
2023/02/07 05:17:34;;;;;;;48.03;15.75;;;2.40;99.90;;;;;;5076372;28;20227;-84
2023/02/07 05:20:03;;;;;;;36.90;15.55;;;2.40;99.90;;;;;;5074891;28;20166;-82
2023/02/07 05:22:29;;;;;;;41.08;16.38;;;2.30;99.90;;;;;;5075577;28;20190;-84
2023/02/07 05:24:55;;;;;;;31.77;16.55;;;2.60;99.90;;;;;;5075978;28;20169;-82
2023/02/07 05:27:21;;;;;;;30.23;14.85;;;2.60;99.90;;;;;;5074768;28;20653;-82
2023/02/07 05:29:47;;;;;;;30.52;15.77;;;2.70;99.90;;;;;;5076409;28;20525;-84
2023/02/07 05:34:58;;;;;;;38.03;16.75;;;3.20;99.90;;;;;;5076345;28;20604;-84
2023/02/07 05:37:24;;;;;;;36.92;15.38;;;3.30;99.90;;;;;;5074609;28;20167;-81
2023/02/07 05:39:49;;;;;;;30.90;17.67;;;3.20;99.90;;;;;;5075739;28;20214;-84
2023/02/07 05:42:15;;;;;;;36.70;16.60;;;3.10;99.90;;;;;;5075813;28;20178;-81
2023/02/07 05:44:41;;;;;;;42.67;17.85;;;3.20;99.90;;;;;;5075491;28;20311;-84
2023/02/07 05:47:07;;;;;;;59.13;18.95;;;3.00;99.90;;;;;;5074570;28;20174;-82
2023/02/07 05:49:32;;;;;;;40.15;16.42;;;2.70;99.90;;;;;;5076140;28;20158;-84
2023/02/07 05:51:58;;;;;;;33.50;16.90;;;2.70;99.90;;;;;;5075681;28;20218;-85
2023/02/07 05:54:24;;;;;;;34.10;16.45;;;2.70;99.90;;;;;;5075574;28;20206;-84
2023/02/07 05:56:49;;;;;;;41.92;17.77;;;2.80;99.90;;;;;;5074286;28;20323;-83
2023/02/07 05:59:15;;;;;;;37.20;16.13;;;2.90;99.90;;;;;;5074254;28;20178;-82
2023/02/07 06:01:41;;;;;;;31.92;15.60;;;3.10;99.90;;;;;;5074432;28;20190;-85
2023/02/07 06:04:07;;;;;;;32.13;16.52;;;2.80;99.90;;;;;;5075712;28;20173;-83
2023/02/07 06:06:32;;;;;;;37.58;17.25;;;3.00;99.90;;;;;;5073958;28;20162;-82
2023/02/07 06:08:58;;;;;;;36.13;17.55;;;3.20;99.90;;;;;;5075566;28;20261;-85
2023/02/07 06:11:24;;;;;;;41.60;17.65;;;3.20;99.90;;;;;;5075053;28;20190;-82
2023/02/07 06:13:49;;;;;;;55.03;15.98;;;3.20;99.90;;;;;;5075163;28;20654;-84
2023/02/07 06:16:15;;;;;;;37.55;16.63;;;3.10;99.90;;;;;;5073475;28;20591;-83
2023/02/07 06:18:40;;;;;;;40.38;16.38;;;3.00;99.90;;;;;;5074869;28;20178;-81
2023/02/07 06:21:06;;;;;;;28.80;14.85;;;2.90;99.90;;;;;;5073344;28;20730;-82
2023/02/07 06:23:31;;;;;;;33.25;16.35;;;3.10;99.90;;;;;;5074942;28;20171;-82
2023/02/07 06:25:57;;;;;;;25.48;15.48;;;3.10;99.90;;;;;;5073903;28;20171;-82
2023/02/07 06:28:23;;;;;;;34.88;15.32;;;3.00;99.90;;;;;;5074769;28;20174;-82
2023/02/07 06:30:51;;;;;;;35.45;16.02;;;3.10;99.90;;;;;;5074729;28;20646;-81
2023/02/07 06:33:16;;;;;;;31.73;13.68;;;3.00;99.90;;;;;;5074190;28;20301;-81
2023/02/07 06:35:46;;;;;;;34.50;15.27;;;2.90;99.90;;;;;;5072948;28;20261;-82
2023/02/07 06:38:15;;;;;;;26.77;15.10;;;3.10;99.90;;;;;;5073367;28;20197;-82
2023/02/07 06:40:42;;;;;;;42.42;15.50;;;3.00;99.90;;;;;;5072988;28;20519;-81
2023/02/07 06:43:09;;;;;;;33.45;14.07;;;2.70;99.90;;;;;;5073137;28;20580;-85
2023/02/07 06:45:35;;;;;;;51.28;16.20;;;2.60;99.90;;;;;;5074356;28;20161;-82
2023/02/07 06:48:01;;;;;;;31.02;15.43;;;2.60;99.90;;;;;;5072973;28;20257;-81
2023/02/07 06:50:26;;;;;;;28.92;15.68;;;2.60;99.90;;;;;;5074431;28;20170;-81
2023/02/07 06:52:52;;;;;;;33.42;15.73;;;2.60;99.90;;;;;;5074161;28;20178;-83
2023/02/07 06:55:17;;;;;;;40.17;16.42;;;2.50;99.90;;;;;;5074769;28;20175;-82
2023/02/07 06:57:43;;;;;;;31.98;16.05;;;2.30;99.90;;;;;;5074591;28;20162;-82
2023/02/07 07:00:10;;;;;;;33.22;15.85;;;2.30;99.90;;;;;;5073163;28;20215;-81
2023/02/07 07:02:36;;;;;;;30.75;15.18;;;2.60;99.90;;;;;;5073562;28;20193;-81
2023/02/07 07:05:02;;;;;;;37.08;16.50;;;2.70;99.90;;;;;;5073319;28;20523;-82
2023/02/07 07:07:28;;;;;;;44.53;16.30;;;2.70;99.90;;;;;;5072336;28;20178;-82
2023/02/07 07:09:53;;;;;;;36.47;16.73;;;2.80;99.90;;;;;;5072220;28;20179;-81
2023/02/07 07:12:19;;;;;;;48.80;16.63;;;2.80;99.90;;;;;;5071670;28;20605;-81
2023/02/07 07:14:45;;;;;;;48.78;16.30;;;2.70;99.90;;;;;;5072170;28;20217;-84
2023/02/07 07:17:10;;;;;;;46.15;17.10;;;2.80;99.90;;;;;;5073322;28;20166;-82
2023/02/07 07:19:36;;;;;;;34.85;16.67;;;2.60;99.90;;;;;;5071798;28;20266;-84
2023/02/07 07:22:02;;;;;;;55.33;19.27;;;2.60;99.90;;;;;;5072305;28;20599;-81
2023/02/07 07:24:27;;;;;;;49.72;19.08;;;2.60;99.90;;;;;;5073317;28;20170;-82
2023/02/07 07:26:53;;;;;;;34.13;17.02;;;2.60;99.90;;;;;;5073321;28;20174;-85
2023/02/07 07:29:19;;;;;;;47.85;20.13;;;2.50;99.90;;;;;;5072501;28;20162;-85
2023/02/07 07:31:45;;;;;;;47.70;18.15;;;2.30;99.90;;;;;;5073585;28;20198;-83
2023/02/07 07:34:11;;;;;;;59.75;19.60;;;2.40;99.90;;;;;;5072097;28;20198;-82
2023/02/07 07:36:37;;;;;;;51.72;19.77;;;2.40;99.90;;;;;;5071949;28;20222;-83
2023/02/07 07:39:03;;;;;;;46.72;20.30;;;2.00;99.90;;;;;;5073724;28;20249;-84
2023/02/07 07:41:29;;;;;;;46.95;18.05;;;2.20;99.90;;;;;;5073355;28;20179;-82
2023/02/07 07:43:55;;;;;;;57.53;20.92;;;2.30;99.90;;;;;;5071650;28;20634;-81
2023/02/07 07:46:20;;;;;;;55.22;19.73;;;2.30;99.90;;;;;;5071782;28;20163;-83
2023/02/07 07:48:46;;;;;;;44.72;18.48;;;2.30;99.90;;;;;;5071963;28;20214;-82
2023/02/07 07:51:12;;;;;;;43.13;19.95;;;2.30;99.90;;;;;;5071403;28;20187;-83
2023/02/07 07:53:37;;;;;;;45.15;18.05;;;2.30;99.90;;;;;;5073095;28;20722;-84
2023/02/07 07:56:03;;;;;;;58.45;18.33;;;2.40;99.90;;;;;;5071607;28;20170;-85
2023/02/07 07:58:29;;;;;;;56.60;20.20;;;2.40;99.90;;;;;;5071626;28;20476;-82
2023/02/07 08:00:55;;;;;;;51.05;18.80;;;2.20;99.90;;;;;;5072905;28;20678;-83
2023/02/07 08:03:21;;;;;;;53.28;17.75;;;2.40;99.90;;;;;;5072884;28;20584;-82
2023/02/07 08:05:47;;;;;;;57.53;20.88;;;2.60;99.90;;;;;;5073153;28;20225;-80
2023/02/07 08:08:14;;;;;;;41.70;18.73;;;2.70;99.90;;;;;;5072574;28;20582;-81
2023/02/07 08:10:40;;;;;;;59.75;19.15;;;2.90;99.90;;;;;;5071382;28;20223;-81
2023/02/07 08:13:05;;;;;;;45.38;19.50;;;3.00;99.90;;;;;;5072477;28;20206;-82
2023/02/07 08:15:31;;;;;;;52.47;20.42;;;2.80;99.90;;;;;;5071319;28;20158;-83
2023/02/07 08:17:57;;;;;;;46.97;19.42;;;2.70;99.90;;;;;;5071996;28;20190;-83
2023/02/07 08:20:23;;;;;;;50.47;19.65;;;2.50;99.90;;;;;;5073222;28;20171;-83
2023/02/07 08:22:48;;;;;;;44.80;18.25;;;2.40;99.90;;;;;;5072543;28;20530;-82
2023/02/07 08:25:14;;;;;;;56.17;20.90;;;2.70;99.90;;;;;;5072393;28;20614;-82
2023/02/07 08:27:40;;;;;;;42.30;18.58;;;2.70;99.90;;;;;;5072800;28;20174;-82
2023/02/07 08:30:07;;;;;;;49.28;19.10;;;2.60;99.90;;;;;;5071400;28;20635;-83
2023/02/07 08:32:33;;;;;;;36.42;17.95;;;2.90;99.90;;;;;;5072683;28;20722;-83
2023/02/07 08:34:59;;;;;;;35.40;16.33;;;2.80;99.90;;;;;;5072643;28;20175;-81
2023/02/07 08:37:25;;;;;;;37.47;18.35;;;2.50;99.90;;;;;;5072427;28;20166;-87
2023/02/07 08:39:51;;;;;;;34.30;18.35;;;2.30;99.90;;;;;;5070972;28;20582;-82
2023/02/07 08:42:21;;;;;;;42.15;17.40;;;2.20;99.90;;;;;;5072556;28;20182;-84
2023/02/07 08:44:48;;;;;;;36.55;16.55;;;2.00;99.90;;;;;;5072976;28;20957;-87
2023/02/07 08:47:15;;;;;;;44.47;20.50;;;1.70;99.90;;;;;;5072945;28;20170;-87
2023/02/07 08:49:42;;;;;;;38.83;17.63;;;1.80;99.90;;;;;;5072869;28;20177;-85
2023/02/07 08:52:08;;;;;;;38.75;17.70;;;1.80;99.90;;;;;;5071607;28;20189;-83
2023/02/07 08:54:33;;;;;;;36.20;16.92;;;2.00;99.90;;;;;;5071984;28;20210;-88
2023/02/07 08:56:59;;;;;;;42.58;17.67;;;1.80;99.90;;;;;;5072007;28;20167;-84
2023/02/07 08:59:25;;;;;;;34.38;17.02;;;1.70;99.90;;;;;;5072170;28;20178;-85
2023/02/07 09:01:50;;;;;;;49.45;19.42;;;1.80;99.90;;;;;;5071595;28;20191;-82
2023/02/07 09:04:16;;;;;;;50.33;20.52;;;1.90;99.90;;;;;;5072485;28;20174;-81
2023/02/07 09:06:42;;;;;;;33.50;17.42;;;2.00;99.90;;;;;;5070642;28;20204;-82
2023/02/07 09:09:09;;;;;;;50.63;18.83;;;2.10;99.90;;;;;;5072216;28;20619;-81
2023/02/07 09:11:35;;;;;;;51.38;20.63;;;2.20;99.90;;;;;;5072524;28;20194;-82
2023/02/07 09:14:01;;;;;;;40.13;19.20;;;2.30;99.90;;;;;;5072049;28;20213;-81
2023/02/07 09:16:26;;;;;;;41.92;18.95;;;2.30;99.90;;;;;;5072268;28;20565;-81
2023/02/07 09:18:52;;;;;;;55.22;19.70;;;2.40;99.90;;;;;;5072018;28;20181;-83
2023/02/07 09:21:18;;;;;;;43.28;17.95;;;2.30;99.90;;;;;;5070449;28;20269;-84
2023/02/07 09:23:43;;;;;;;45.75;18.48;;;2.50;99.90;;;;;;5072225;28;20170;-80
2023/02/07 09:26:16;;;;;;;37.47;17.88;;;2.60;99.90;;;;;;5072198;28;20155;-81
2023/02/07 09:28:42;;;;;;;45.75;20.52;;;2.50;99.90;;;;;;5072100;28;20230;-82
2023/02/07 09:31:11;;;;;;;76.57;34.83;;;2.60;99.90;;;;;;5071930;28;20215;-82
2023/02/07 09:33:37;;;;;;;55.75;20.15;;;2.80;99.90;;;;;;5072060;28;20218;-82
2023/02/07 09:36:03;;;;;;;43.83;19.95;;;2.90;99.90;;;;;;5071980;28;20154;-81
2023/02/07 09:38:29;;;;;;;53.38;21.75;;;3.00;99.90;;;;;;5070968;28;20695;-83
2023/02/07 09:40:57;;;;;;;40.45;19.20;;;2.80;99.90;;;;;;5071061;28;20194;-81
2023/02/07 09:43:46;;;;;;;45.70;19.55;;;2.70;99.90;;;;;;5075389;28;20167;-83
2023/02/07 09:46:42;;;;;;;51.92;21.05;;;2.60;99.90;;;;;;5075556;28;20175;-82
2023/02/07 09:49:34;;;;;;;40.67;18.55;;;2.60;99.90;;;;;;5075226;28;20163;-81
2023/02/07 09:52:02;;;;;;;34.55;16.83;;;2.70;99.90;;;;;;5073821;28;20243;-83
2023/02/07 09:54:36;;;;;;;27.80;16.85;;;2.70;99.90;;;;;;5073554;28;20213;-81
2023/02/07 09:57:07;;;;;;;34.78;16.58;;;2.90;99.90;;;;;;5075290;28;20657;-80
2023/02/07 10:00:04;;;;;;;34.53;16.58;;;3.00;99.90;;;;;;5074903;28;20162;-82
2023/02/07 10:02:44;;;;;;;37.55;17.08;;;3.10;99.90;;;;;;5074574;28;20319;-81
2023/02/07 10:05:26;;;;;;;35.67;14.82;;;3.20;99.90;;;;;;5075478;28;20653;-81
2023/02/07 10:07:52;;;;;;;23.25;15.30;;;3.20;99.90;;;;;;5074946;28;20170;-85
2023/02/07 10:10:56;;;;;;;34.85;14.18;;;3.40;99.90;;;;;;5074940;28;20174;-84
2023/02/07 10:13:27;;;;;;;30.77;15.25;;;3.50;99.90;;;;;;5070849;22;20217;-85
2023/02/07 10:16:22;;;;;;;30.05;14.55;;;3.60;99.90;;;;;;5073981;28;20187;-83
2023/02/07 10:19:10;;;;;;;39.92;15.35;;;3.80;99.90;;;;;;5073922;28;20268;-82
2023/02/07 10:22:12;;;;;;;33.85;15.45;;;4.00;99.90;;;;;;5075174;28;20194;-85
2023/02/07 10:25:15;;;;;;;25.77;14.32;;;4.20;99.90;;;;;;5075536;28;20233;-86
2023/02/07 10:27:59;;;;;;;40.25;13.93;;;4.20;99.90;;;;;;5074030;28;20235;-87
2023/02/07 10:30:35;;;;;;;30.73;13.75;;;4.40;99.90;;;;;;5074344;28;20178;-86
2023/02/07 10:33:13;;;;;;;21.60;13.05;;;4.40;99.90;;;;;;5075083;28;20212;-85
2023/02/07 10:35:39;;;;;;;29.85;13.75;;;4.30;99.90;;;;;;5073681;28;20173;-80
2023/02/07 10:38:21;;;;;;;22.67;13.50;;;4.30;99.90;;;;;;5074891;28;20254;-78
2023/02/07 10:41:05;;;;;;;43.05;13.30;;;4.50;99.90;;;;;;5074404;28;20257;-77
2023/02/07 10:43:34;;;;;;;26.60;12.07;;;4.70;99.90;;;;;;5076020;28;20178;-85
2023/02/07 10:46:05;;;;;;;32.90;13.00;;;4.70;99.90;;;;;;5075159;28;20151;-85
2023/02/07 10:48:32;;;;;;;27.05;12.13;;;4.70;99.90;;;;;;5074215;28;20167;-85
2023/02/07 10:51:01;;;;;;;23.50;11.35;;;4.90;99.90;;;;;;5073521;28;20251;-84
2023/02/07 10:53:49;;;;;;;23.05;10.32;;;5.00;99.90;;;;;;5073503;28;20217;-84
2023/02/07 10:56:26;;;;;;;18.75;9.70;;;5.10;99.90;;;;;;5075344;28;20262;-86
2023/02/07 10:58:54;;;;;;;19.42;9.45;;;5.10;99.90;;;;;;5074877;28;20168;-85
2023/02/07 11:01:23;;;;;;;16.02;7.90;;;4.90;99.90;;;;;;5073075;28;20221;-83
2023/02/07 11:03:49;;;;;;;9.60;6.80;;;4.90;99.90;;;;;;5074634;28;20216;-86
2023/02/07 11:06:23;;;;;;;10.55;6.20;;;4.90;99.90;;;;;;5074310;28;20159;-86
2023/02/07 11:08:48;;;;;;;12.02;6.75;;;5.00;99.90;;;;;;5073991;28;20157;-80
2023/02/07 11:11:35;;;;;;;13.52;5.95;;;5.00;99.90;;;;;;5074330;28;20308;-84
2023/02/07 11:14:05;;;;;;;12.57;6.80;;;4.90;99.90;;;;;;5073105;28;20210;-86
2023/02/07 11:16:32;;;;;;;12.73;6.53;;;5.20;99.90;;;;;;5074338;28;20165;-86
2023/02/07 11:19:02;;;;;;;11.13;6.03;;;5.30;99.90;;;;;;5073253;28;20190;-86
2023/02/07 11:21:30;;;;;;;12.98;6.18;;;5.20;99.90;;;;;;5073959;28;20608;-84
2023/02/07 11:24:11;;;;;;;19.48;6.30;;;5.20;99.90;;;;;;5073016;28;20166;-86
2023/02/07 11:26:59;;;;;;;14.80;5.85;;;5.30;99.90;;;;;;5074207;28;20183;-86
2023/02/07 11:29:25;;;;;;;23.95;6.05;;;5.50;99.90;;;;;;5073707;28;20169;-83
2023/02/07 11:31:54;;;;;;;9.38;5.93;;;5.70;99.90;;;;;;5074013;28;20193;-85
2023/02/07 11:34:40;;;;;;;12.85;5.93;;;5.80;99.90;;;;;;5074162;28;20209;-85
2023/02/07 11:37:29;;;;;;;10.18;5.35;;;5.70;99.90;;;;;;5073805;28;20257;-85
2023/02/07 11:40:19;;;;;;;9.20;4.78;;;5.60;99.90;;;;;;5073927;28;20178;-80
2023/02/07 11:42:56;;;;;;;9.73;6.00;;;5.50;99.90;;;;;;5073695;28;20692;-86
2023/02/07 11:45:22;;;;;;;8.88;5.45;;;5.60;99.90;;;;;;5073090;28;20170;-87
2023/02/07 11:47:52;;;;;;;11.45;5.70;;;5.70;99.90;;;;;;5073040;28;20699;-86
2023/02/07 11:50:24;;;;;;;10.90;5.28;;;5.80;99.90;;;;;;5074006;28;20175;-85
2023/02/07 11:52:53;;;;;;;9.15;5.68;;;6.00;99.90;;;;;;5074433;28;20281;-85
2023/02/07 11:55:34;;;;;;;16.60;5.78;;;6.00;99.90;;;;;;5074209;28;20171;-84
2023/02/07 11:58:09;;;;;;;8.05;5.70;;;5.80;99.90;;;;;;5074165;28;20211;-85
2023/02/07 12:00:37;;;;;;;8.05;4.93;;;5.90;99.90;;;;;;5073954;28;20240;-86
2023/02/07 12:03:16;;;;;;;14.68;5.25;;;6.00;99.90;;;;;;5073859;28;20308;-85
2023/02/07 12:05:45;;;;;;;7.30;5.43;;;6.10;99.90;;;;;;5072814;28;20610;-77
2023/02/07 12:08:19;;;;;;;6.68;5.32;;;6.30;99.90;;;;;;5068940;28;20706;-85
2023/02/07 12:10:50;;;;;;;12.05;6.80;;;5.90;99.90;;;;;;5073619;28;20714;-85
2023/02/07 12:13:31;;;;;;;7.55;5.70;;;5.80;99.90;;;;;;5072206;28;20291;-87
2023/02/07 12:16:09;;;;;;;11.18;5.47;;;5.80;99.90;;;;;;5072866;28;20170;-87
2023/02/07 12:18:41;;;;;;;15.45;5.78;;;5.90;99.90;;;;;;5073718;28;20245;-87
2023/02/07 12:21:25;;;;;;;11.10;6.25;;;6.10;99.90;;;;;;5073514;28;20240;-85
2023/02/07 12:23:59;;;;;;;12.13;6.28;;;6.00;99.90;;;;;;5053260;28;20167;-86
2023/02/07 12:26:52;;;;;;;14.00;6.75;;;6.20;99.90;;;;;;5059756;28;20177;-85
2023/02/07 12:29:39;;;;;;;11.07;6.15;;;6.30;99.90;;;;;;5051800;28;20548;-85
2023/02/07 12:32:43;;;;;;;17.42;7.72;;;6.30;99.90;;;;;;5051740;28;20187;-85
2023/02/07 12:35:24;;;;;;;9.15;6.93;;;6.30;99.90;;;;;;5051030;28;20217;-85
2023/02/07 12:38:10;;;;;;;9.35;7.00;;;6.20;99.90;;;;;;5072945;28;20170;-86
2023/02/07 12:40:59;;;;;;;10.35;6.80;;;6.30;99.90;;;;;;5072753;28;20167;-86
2023/02/07 12:43:31;;;;;;;13.50;6.60;;;6.20;99.90;;;;;;5053926;28;20258;-85
2023/02/07 12:46:00;;;;;;;10.88;5.95;;;6.10;99.90;;;;;;5054722;28;20240;-85
2023/02/07 12:48:37;;;;;;;13.73;7.20;;;6.00;99.90;;;;;;5073017;28;20167;-85
2023/02/07 12:51:29;;;;;;;11.88;6.78;;;6.20;99.90;;;;;;5073049;28;20190;-84
2023/02/07 12:54:08;;;;;;;16.75;6.07;;;6.20;99.90;;;;;;5073141;28;20213;-86
2023/02/07 12:56:40;;;;;;;11.18;7.32;;;6.20;99.90;;;;;;5074558;28;20189;-85
2023/02/07 12:59:27;;;;;;;12.48;6.15;;;6.20;99.90;;;;;;5071578;28;20170;-85